createdAt,value
2023-01-02T00:00:00.000Z,4.51
2023-01-02T00:15:00.000Z,4.49
2023-01-02T00:30:00.000Z,4.35
2023-01-02T00:45:00.000Z,4.16
2023-01-02T01:00:00.000Z,4.19
2023-01-02T01:15:00.000Z,4.09
2023-01-02T01:30:00.000Z,4.16
2023-01-02T01:45:00.000Z,4.07
2023-01-02T02:00:00.000Z,3.74
2023-01-02T02:15:00.000Z,4.05
2023-01-02T02:30:00.000Z,3.88
2023-01-02T02:45:00.000Z,3.29
2023-01-02T03:00:00.000Z,2.87
2023-01-02T03:15:00.000Z,2.81
2023-01-02T03:30:00.000Z,3.35
2023-01-02T03:45:00.000Z,2.92
2023-01-02T04:00:00.000Z,2.24
2023-01-02T04:15:00.000Z,2.88
2023-01-02T04:30:00.000Z,2.35
2023-01-02T04:45:00.000Z,2.52
2023-01-02T05:00:00.000Z,1.81
2023-01-02T05:15:00.000Z,2.14
2023-01-02T05:30:00.000Z,2.44
2023-01-02T05:45:00.000Z,2.31
2023-01-02T06:00:00.000Z,2.39
2023-01-02T06:15:00.000Z,3.15
2023-01-02T06:30:00.000Z,3.55
2023-01-02T06:45:00.000Z,3.81
2023-01-02T07:00:00.000Z,4.25
2023-01-02T07:15:00.000Z,4.07
2023-01-02T07:30:00.000Z,4.01
2023-01-02T07:45:00.000Z,3.2
2023-01-02T08:00:00.000Z,3.29
2023-01-02T08:15:00.000Z,3.79
2023-01-02T08:30:00.000Z,2.45
2023-01-02T08:45:00.000Z,2.55
2023-01-02T09:00:00.000Z,2.67
2023-01-02T09:15:00.000Z,2.01
2023-01-02T09:30:00.000Z,2.48
2023-01-02T09:45:00.000Z,3.52
2023-01-02T10:00:00.000Z,3.16
2023-01-02T10:15:00.000Z,3.09
2023-01-02T10:30:00.000Z,4
2023-01-02T10:45:00.000Z,2.33
2023-01-02T11:00:00.000Z,2.17
2023-01-02T11:15:00.000Z,2.95
2023-01-02T11:30:00.000Z,1.71
2023-01-02T11:45:00.000Z,1.67
2023-01-02T12:00:00.000Z,3.11
2023-01-02T12:15:00.000Z,2.05
2023-01-02T12:30:00.000Z,2.78
2023-01-02T12:45:00.000Z,3.65
2023-01-02T13:00:00.000Z,5.68
2023-01-02T13:15:00.000Z,9.93
2023-01-02T13:30:00.000Z,8.36
2023-01-02T13:45:00.000Z,9.35
2023-01-02T14:00:00.000Z,10.62
2023-01-02T14:15:00.000Z,8.92
2023-01-02T14:30:00.000Z,10.38
2023-01-02T14:45:00.000Z,8.72
2023-01-02T15:00:00.000Z,16
2023-01-02T15:15:00.000Z,12
2023-01-02T15:30:00.000Z,15.73
2023-01-02T15:45:00.000Z,14.35
2023-01-02T16:00:00.000Z,16.61
2023-01-02T16:15:00.000Z,12.79
2023-01-02T16:30:00.000Z,14.12
2023-01-02T16:45:00.000Z,10.99
2023-01-02T17:00:00.000Z,10.45
2023-01-02T17:15:00.000Z,11.28
2023-01-02T17:30:00.000Z,11.68
2023-01-02T17:45:00.000Z,13.69
2023-01-02T18:00:00.000Z,13.38
2023-01-02T18:15:00.000Z,14.85
2023-01-02T18:30:00.000Z,13.69
2023-01-02T18:45:00.000Z,14.82
2023-01-02T19:00:00.000Z,13.12
2023-01-02T19:15:00.000Z,14.67
2023-01-02T19:30:00.000Z,12.61
2023-01-02T19:45:00.000Z,12.84
2023-01-02T20:00:00.000Z,15.67
2023-01-02T20:15:00.000Z,18.14
2023-01-02T20:30:00.000Z,14.54
2023-01-02T20:45:00.000Z,14.73
2023-01-02T21:00:00.000Z,14.8
2023-01-02T21:15:00.000Z,14.62
2023-01-02T21:30:00.000Z,12.12
2023-01-02T21:45:00.000Z,12.73
2023-01-02T22:00:00.000Z,10.69
2023-01-02T22:15:00.000Z,12.85
2023-01-02T22:30:00.000Z,12.27
2023-01-02T22:45:00.000Z,10.82
2023-01-02T23:00:00.000Z,7.75
2023-01-02T23:15:00.000Z,7.21
2023-01-02T23:30:00.000Z,7.79
2023-01-02T23:45:00.000Z,7.82
